Time;durP1;ratioP1;P1;durP2;ratioP2;P2;SDS_P1;SDS_P2;PMS_P1;PMS_P2;Temp;Humidity;BMP_temperature;BMP_pressure;BME280_temperature;BME280_humidity;BME280_pressure;Samples;Min_cycle;Max_cycle;Signal;HPM_P1;HPM_P2
2021/12/26 00:01:40;;;;;;;;;0.00;0.00;;;;;-146.25;100.00;57879.81;5075471;27;45482;-73
2021/12/26 00:04:06;;;;;;;;;1.00;1.00;;;;;-146.25;100.00;57879.81;5075558;27;45471;-73
2021/12/26 00:06:32;;;;;;;;;1.00;1.00;;;;;-146.25;100.00;57879.81;5075429;27;45477;-74
2021/12/26 00:08:59;;;;;;;;;1.00;0.00;;;;;-146.25;100.00;57879.81;5075399;27;45526;-73
2021/12/26 00:11:25;;;;;;;;;0.67;0.67;;;;;-146.25;100.00;57879.81;5075459;27;45220;-73
2021/12/26 00:13:53;;;;;;;;;1.00;1.00;;;;;-146.25;100.00;57879.81;5075982;27;45544;-73
2021/12/26 00:16:19;;;;;;;;;1.00;1.00;;;;;-146.25;100.00;57879.81;5075298;27;46251;-73
2021/12/26 00:18:46;;;;;;;;;3.67;3.00;;;;;-146.25;100.00;57879.81;5075040;27;45407;-73
2021/12/26 00:21:18;;;;;;;;;1.00;1.00;;;;;-146.25;100.00;57879.81;5075329;27;45478;-73
2021/12/26 00:23:45;;;;;;;;;2.33;0.67;;;;;-146.25;100.00;57879.81;5075425;27;45709;-73
2021/12/26 00:26:10;;;;;;;;;1.00;1.00;;;;;-146.25;100.00;57879.81;5075053;27;45497;-73
2021/12/26 00:28:37;;;;;;;;;1.33;1.33;;;;;-146.25;100.00;57879.81;5074827;27;45533;-74
2021/12/26 00:31:03;;;;;;;;;4.67;3.00;;;;;-146.25;100.00;57879.81;5075311;27;45576;-73
2021/12/26 00:33:29;;;;;;;;;3.67;3.00;;;;;-146.25;100.00;57879.81;5075074;27;45564;-73
2021/12/26 00:35:56;;;;;;;;;2.00;2.00;;;;;-146.25;100.00;57879.81;5074726;27;45370;-74
2021/12/26 00:38:22;;;;;;;;;1.00;1.00;;;;;-146.25;100.00;57879.81;5078046;27;45463;-72
2021/12/26 00:40:48;;;;;;;;;3.00;3.00;;;;;-146.25;100.00;57879.81;5078615;28;45520;-73
2021/12/26 00:43:13;;;;;;;;;2.00;2.00;;;;;-146.25;100.00;57879.81;5078651;27;45511;-75
2021/12/26 00:45:40;;;;;;;;;1.33;1.00;;;;;-146.25;100.00;57879.81;5078547;27;46231;-73
2021/12/26 00:48:07;;;;;;;;;1.00;1.00;;;;;-146.25;100.00;57879.81;5078224;27;45352;-73
2021/12/26 00:50:35;;;;;;;;;0.33;0.33;;;;;-146.25;100.00;57879.81;5078296;27;45373;-73
2021/12/26 00:53:01;;;;;;;;;0.00;0.00;;;;;-146.25;100.00;57879.81;5078692;27;45495;-73
2021/12/26 00:55:27;;;;;;;;;1.00;1.00;;;;;-146.25;100.00;57879.81;5078035;27;45959;-73
2021/12/26 00:57:53;;;;;;;;;1.00;0.33;;;;;-146.25;100.00;57879.81;5078290;27;45506;-72
2021/12/26 01:00:28;;;;;;;;;0.33;0.33;;;;;-146.25;100.00;57879.81;5078451;28;45447;-73
2021/12/26 01:02:55;;;;;;;;;1.00;1.00;;;;;-146.25;100.00;57879.81;5076082;28;45489;-74
2021/12/26 01:05:22;;;;;;;;;1.33;1.33;;;;;-146.25;100.00;57879.81;5078222;27;46272;-74
2021/12/26 01:10:17;;;;;;;;;2.33;1.33;;;;;-146.25;100.00;57879.81;5077885;27;45380;-73
2021/12/26 01:12:43;;;;;;;;;2.00;2.00;;;;;-146.25;100.00;57879.81;5078414;27;45799;-73
2021/12/26 01:15:09;;;;;;;;;1.00;1.00;;;;;-146.25;100.00;57879.81;5077682;27;46139;-73
2021/12/26 01:17:39;;;;;;;;;1.00;1.00;;;;;-146.25;100.00;57879.81;5077910;27;45670;-73
2021/12/26 01:20:09;;;;;;;;;1.00;1.00;;;;;-146.25;100.00;57879.81;5077804;27;45478;-73
2021/12/26 01:22:36;;;;;;;;;2.33;1.00;;;;;-146.25;100.00;57879.81;5077893;27;45409;-73
2021/12/26 01:25:03;;;;;;;;;1.00;1.00;;;;;-146.25;100.00;57879.81;5077607;28;45417;-73
2021/12/26 01:27:28;;;;;;;;;1.00;1.00;;;;;-146.25;100.00;57879.81;5077636;28;45369;-73
2021/12/26 01:29:54;;;;;;;;;0.67;0.67;;;;;-146.25;100.00;57879.81;5077567;28;45412;-72
2021/12/26 01:32:21;;;;;;;;;1.00;1.00;;;;;-146.25;100.00;57879.81;5077999;27;45477;-73
2021/12/26 01:34:47;;;;;;;;;0.00;0.00;;;;;-146.25;100.00;57879.81;5077501;27;46490;-73
2021/12/26 01:37:13;;;;;;;;;1.00;1.00;;;;;-146.25;100.00;57879.81;5077724;27;45697;-73
2021/12/26 01:39:39;;;;;;;;;0.00;0.00;;;;;-146.25;100.00;57879.81;5077635;27;45448;-73
2021/12/26 01:42:08;;;;;;;;;1.00;1.00;;;;;-146.25;100.00;57879.81;5077900;27;45405;-73
2021/12/26 01:44:34;;;;;;;;;1.00;1.00;;;;;-146.25;100.00;57879.81;5075032;28;45538;-72
2021/12/26 01:47:00;;;;;;;;;0.33;0.33;;;;;-146.25;100.00;57879.81;5077389;27;45620;-73
2021/12/26 01:49:28;;;;;;;;;1.00;0.67;;;;;-146.25;100.00;57879.81;5076918;27;45464;-72
2021/12/26 01:51:59;;;;;;;;;0.67;0.33;;;;;-146.25;100.00;57879.81;5077611;27;45502;-72
2021/12/26 01:54:39;;;;;;;;;1.00;1.00;;;;;-146.25;100.00;57879.81;5077155;27;45420;-73
2021/12/26 01:57:09;;;;;;;;;1.00;1.00;;;;;-146.25;100.00;57879.81;5077134;27;45372;-73
2021/12/26 01:59:36;;;;;;;;;1.00;1.00;;;;;-146.25;100.00;57879.81;5075135;28;45501;-72
2021/12/26 02:02:03;;;;;;;;;0.33;0.33;;;;;-146.25;100.00;57879.81;5077571;27;46080;-73
2021/12/26 02:04:29;;;;;;;;;1.00;0.00;;;;;-146.25;100.00;57879.81;5076799;27;45567;-73
2021/12/26 02:07:00;;;;;;;;;0.00;0.00;;;;;-146.25;100.00;57879.81;5076982;28;45470;-73
2021/12/26 02:09:26;;;;;;;;;1.00;0.00;;;;;-146.25;100.00;57879.81;5076913;27;45593;-73
2021/12/26 02:11:53;;;;;;;;;1.00;1.00;;;;;-146.25;100.00;57879.81;5077435;27;45303;-73
2021/12/26 02:14:19;;;;;;;;;1.00;1.00;;;;;-146.25;100.00;57879.81;5077382;27;45770;-73
2021/12/26 02:16:46;;;;;;;;;0.67;0.67;;;;;-146.25;100.00;57879.81;5076933;27;45463;-74
2021/12/26 02:19:12;;;;;;;;;1.00;1.00;;;;;-146.25;100.00;57879.81;5077061;27;45547;-73
2021/12/26 02:22:00;;;;;;;;;1.00;1.00;;;;;-146.25;100.00;57879.81;5077088;27;45368;-72
2021/12/26 02:24:55;;;;;;;;;1.33;1.00;;;;;-146.25;100.00;57879.81;5075787;28;45361;-73
2021/12/26 02:27:33;;;;;;;;;0.00;0.00;;;;;-146.25;100.00;57879.81;5076388;28;45472;-74
2021/12/26 02:30:06;;;;;;;;;0.67;0.67;;;;;-146.25;100.00;57879.81;5075170;28;45428;-74
2021/12/26 02:32:32;;;;;;;;;0.00;0.00;;;;;-146.25;100.00;57879.81;5074376;28;45583;-74
2021/12/26 02:34:59;;;;;;;;;0.33;0.33;;;;;-146.25;100.00;57879.81;5076702;27;46204;-74
2021/12/26 02:37:25;;;;;;;;;1.00;1.00;;;;;-146.25;100.00;57879.81;5076770;27;45493;-74
2021/12/26 02:39:51;;;;;;;;;1.00;1.00;;;;;-146.25;100.00;57879.81;5076714;27;45365;-75
2021/12/26 02:42:22;;;;;;;;;2.00;2.00;;;;;-146.25;100.00;57879.81;5076628;27;45357;-74
2021/12/26 02:44:48;;;;;;;;;5.00;4.00;;;;;-146.25;100.00;57879.81;5076580;27;46126;-75
2021/12/26 02:47:28;;;;;;;;;8.00;7.75;;;;;-146.25;100.00;57879.81;5076382;27;45864;-74
2021/12/26 02:49:58;;;;;;;;;2.00;2.00;;;;;-146.25;100.00;57879.81;5074171;28;45505;-74
2021/12/26 02:52:24;;;;;;;;;1.00;1.00;;;;;-146.25;100.00;57879.81;5076759;27;45902;-74
2021/12/26 02:54:49;;;;;;;;;1.00;1.00;;;;;-146.25;100.00;57879.81;5076484;27;45483;-75
2021/12/26 02:57:15;;;;;;;;;2.00;1.00;;;;;-146.25;100.00;57879.81;5077648;28;45520;-75
2021/12/26 02:59:40;;;;;;;;;2.00;1.00;;;;;-146.25;100.00;57879.81;5076957;28;45595;-75
2021/12/26 03:02:06;;;;;;;;;1.00;1.00;;;;;-146.25;100.00;57879.81;5093878;27;45993;-75
2021/12/26 03:04:31;;;;;;;;;0.00;0.00;;;;;-146.25;100.00;57879.81;5077717;27;45393;-75
2021/12/26 03:07:02;;;;;;;;;1.00;1.00;;;;;-146.25;100.00;57879.81;5093434;27;45547;-75
2021/12/26 03:09:33;;;;;;;;;0.00;0.00;;;;;-146.25;100.00;57879.81;5078041;27;45264;-74
2021/12/26 03:11:58;;;;;;;;;1.33;1.00;;;;;-146.25;100.00;57879.81;5078003;27;45308;-75
2021/12/26 03:14:24;;;;;;;;;1.00;1.00;;;;;-146.25;100.00;57879.81;5077763;27;45418;-74
2021/12/26 03:16:51;;;;;;;;;1.00;1.00;;;;;-146.25;100.00;57879.81;5077889;27;45388;-75
2021/12/26 03:19:18;;;;;;;;;1.00;0.00;;;;;-146.25;100.00;57879.81;5077848;27;45231;-75
2021/12/26 03:21:44;;;;;;;;;1.00;1.00;;;;;-146.25;100.00;57879.81;5077861;27;45562;-75
2021/12/26 03:24:09;;;;;;;;;0.33;0.33;;;;;-146.25;100.00;57879.81;5077504;28;46077;-75
2021/12/26 03:26:35;;;;;;;;;1.67;1.67;;;;;-146.25;100.00;57879.81;5077490;28;45334;-75
2021/12/26 03:29:00;;;;;;;;;1.00;0.67;;;;;-146.25;100.00;57879.81;5093256;27;45398;-75
2021/12/26 03:31:26;;;;;;;;;1.00;1.00;;;;;-146.25;100.00;57879.81;5076384;28;45382;-74
2021/12/26 03:33:52;;;;;;;;;2.00;2.00;;;;;-146.25;100.00;57879.81;5077746;28;46034;-75
2021/12/26 03:36:17;;;;;;;;;2.00;2.00;;;;;-146.25;100.00;57879.81;5077383;27;45492;-74
2021/12/26 03:38:43;;;;;;;;;1.33;1.00;;;;;-146.25;100.00;57879.81;5077618;27;45388;-73
2021/12/26 03:41:08;;;;;;;;;1.00;1.00;;;;;-146.25;100.00;57879.81;5093325;27;45402;-74
2021/12/26 03:43:34;;;;;;;;;1.00;1.00;;;;;-146.25;100.00;57879.81;5076988;28;46132;-75
2021/12/26 03:46:00;;;;;;;;;0.33;0.33;;;;;-146.25;100.00;57879.81;5077271;28;45314;-75
2021/12/26 03:48:27;;;;;;;;;1.00;1.00;;;;;-146.25;100.00;57879.81;5077704;27;45364;-74
2021/12/26 03:50:54;;;;;;;;;2.00;1.00;;;;;-146.25;100.00;57879.81;5077975;27;45492;-75
2021/12/26 03:53:20;;;;;;;;;1.00;1.00;;;;;-146.25;100.00;57879.81;5076992;27;45963;-74
2021/12/26 03:55:46;;;;;;;;;0.33;0.33;;;;;-146.25;100.00;57879.81;5077170;27;45465;-75
2021/12/26 03:58:12;;;;;;;;;7.00;7.00;;;;;-146.25;100.00;57879.81;5077276;27;45424;-75
2021/12/26 04:00:39;;;;;;;;;4.00;3.00;;;;;-146.25;100.00;57879.81;5077003;27;45611;-75
2021/12/26 04:03:05;;;;;;;;;1.00;1.00;;;;;-146.25;100.00;57879.81;5076685;27;45578;-75
2021/12/26 04:05:30;;;;;;;;;1.00;1.00;;;;;-146.25;100.00;57879.81;5076577;27;45544;-74
2021/12/26 04:07:56;;;;;;;;;0.00;0.00;;;;;-146.25;100.00;57879.81;5077095;27;45444;-73
2021/12/26 04:10:23;;;;;;;;;0.00;0.00;;;;;-146.25;100.00;57879.81;5077388;28;45447;-75
2021/12/26 04:12:50;;;;;;;;;2.00;2.00;;;;;-146.25;100.00;57879.81;5080430;27;45536;-74
2021/12/26 04:15:19;;;;;;;;;1.00;1.00;;;;;-146.25;100.00;57879.81;5080366;28;45484;-75
2021/12/26 04:17:45;;;;;;;;;5.00;4.33;;;;;-146.25;100.00;57879.81;5080265;27;45395;-73
2021/12/26 04:20:11;;;;;;;;;13.00;13.00;;;;;-146.25;100.00;57879.81;5080455;27;45457;-75
2021/12/26 04:22:36;;;;;;;;;6.67;6.00;;;;;-146.25;100.00;57879.81;5080085;27;45723;-74
2021/12/26 04:25:04;;;;;;;;;5.00;5.00;;;;;-146.25;100.00;57879.81;5080294;28;45310;-74
2021/12/26 04:27:30;;;;;;;;;2.00;2.00;;;;;-146.25;100.00;57879.81;5080390;28;45487;-74
2021/12/26 04:29:55;;;;;;;;;4.00;3.33;;;;;-146.25;100.00;57879.81;5080553;27;45405;-75
2021/12/26 04:32:21;;;;;;;;;4.33;2.67;;;;;-146.25;100.00;57879.81;5079748;27;45429;-74
2021/12/26 04:34:47;;;;;;;;;1.00;1.00;;;;;-146.25;100.00;57879.81;5079943;27;45512;-75
2021/12/26 04:37:13;;;;;;;;;2.00;1.33;;;;;-146.25;100.00;57879.81;5080188;27;45532;-75
2021/12/26 04:39:39;;;;;;;;;1.00;1.00;;;;;-146.25;100.00;57879.81;5080179;28;45381;-73
2021/12/26 04:42:05;;;;;;;;;2.00;1.00;;;;;-146.25;100.00;57879.81;5080029;28;46082;-74
2021/12/26 04:44:31;;;;;;;;;0.00;0.00;;;;;-146.25;100.00;57879.81;5080028;27;45484;-73
2021/12/26 04:46:56;;;;;;;;;1.00;1.00;;;;;-146.25;100.00;57879.81;5080267;28;45317;-74
2021/12/26 04:49:22;;;;;;;;;1.00;1.00;;;;;-146.25;100.00;57879.81;5080273;27;45172;-74
2021/12/26 04:51:48;;;;;;;;;1.00;1.00;;;;;-146.25;100.00;57879.81;5079914;27;45320;-73
2021/12/26 04:54:13;;;;;;;;;1.00;1.00;;;;;-146.25;100.00;57879.81;5080029;27;45426;-73
2021/12/26 04:56:39;;;;;;;;;1.00;1.00;;;;;-146.25;100.00;57879.81;5080086;27;45484;-73
2021/12/26 04:59:05;;;;;;;;;0.00;0.00;;;;;-146.25;100.00;57879.81;5080114;28;45472;-73
2021/12/26 05:01:31;;;;;;;;;0.67;0.67;;;;;-146.25;100.00;57879.81;5080027;28;46108;-73
2021/12/26 05:03:56;;;;;;;;;2.00;2.00;;;;;-146.25;100.00;57879.81;5079972;27;45523;-73
2021/12/26 05:06:22;;;;;;;;;1.00;1.00;;;;;-146.25;100.00;57879.81;5078243;28;45339;-74
2021/12/26 05:08:47;;;;;;;;;1.00;1.00;;;;;-146.25;100.00;57879.81;5079657;27;45491;-73
2021/12/26 05:11:13;;;;;;;;;2.00;1.33;;;;;-146.25;100.00;57879.81;5094997;27;45333;-73
2021/12/26 05:13:38;;;;;;;;;2.33;2.33;;;;;-146.25;100.00;57879.81;5079369;27;45556;-74
2021/12/26 05:16:04;;;;;;;;;2.00;2.00;;;;;-146.25;100.00;57879.81;5079251;28;45496;-73
2021/12/26 05:18:30;;;;;;;;;2.00;2.00;;;;;-146.25;100.00;57879.81;5079745;27;45503;-74
2021/12/26 05:20:56;;;;;;;;;0.00;0.00;;;;;-146.25;100.00;57879.81;5079490;28;45570;-74
2021/12/26 05:23:22;;;;;;;;;1.00;1.00;;;;;-146.25;100.00;57879.81;5078602;27;45780;-73
2021/12/26 05:25:48;;;;;;;;;2.33;2.00;;;;;-146.25;100.00;57879.81;5079346;27;45464;-74
2021/12/26 05:28:14;;;;;;;;;1.00;1.00;;;;;-146.25;100.00;57879.81;5095226;27;45324;-74
2021/12/26 05:30:39;;;;;;;;;2.33;2.33;;;;;-146.25;100.00;57879.81;5079340;27;45515;-74
2021/12/26 05:33:05;;;;;;;;;1.67;1.00;;;;;-146.25;100.00;57879.81;5079215;28;45488;-73
2021/12/26 05:35:31;;;;;;;;;1.00;1.00;;;;;-146.25;100.00;57879.81;5079809;27;45480;-73
2021/12/26 05:37:58;;;;;;;;;1.00;1.00;;;;;-146.25;100.00;57879.81;5079511;27;45480;-74
2021/12/26 05:40:24;;;;;;;;;1.00;1.00;;;;;-146.25;100.00;57879.81;5077735;28;45555;-74
2021/12/26 05:42:49;;;;;;;;;2.33;2.33;;;;;-146.25;100.00;57879.81;5078917;27;45544;-74
2021/12/26 05:45:16;;;;;;;;;1.00;1.00;;;;;-146.25;100.00;57879.81;5079119;27;45319;-74
2021/12/26 05:47:41;;;;;;;;;2.33;1.00;;;;;-146.25;100.00;57879.81;5079434;28;45512;-73
2021/12/26 05:50:10;;;;;;;;;1.00;1.00;;;;;-146.25;100.00;57879.81;5078752;28;45500;-73
2021/12/26 05:52:35;;;;;;;;;0.33;0.33;;;;;-146.25;100.00;57879.81;5078988;28;45477;-73
2021/12/26 05:55:01;;;;;;;;;2.00;1.00;;;;;-146.25;100.00;57879.81;5079316;28;45428;-73
2021/12/26 05:57:27;;;;;;;;;1.00;1.00;;;;;-146.25;100.00;57879.81;5079296;27;45339;-74
2021/12/26 05:59:52;;;;;;;;;0.00;0.00;;;;;-146.25;100.00;57879.81;5078748;27;45491;-73
2021/12/26 06:02:18;;;;;;;;;0.00;0.00;;;;;-146.25;100.00;57879.81;5078896;27;45494;-74
2021/12/26 06:04:43;;;;;;;;;0.33;0.33;;;;;-146.25;100.00;57879.81;5078784;28;45422;-73
2021/12/26 06:07:09;;;;;;;;;2.00;1.33;;;;;-146.25;100.00;57879.81;5078736;27;45468;-74
2021/12/26 06:09:35;;;;;;;;;1.00;1.00;;;;;-146.25;100.00;57879.81;5078343;27;46134;-73
2021/12/26 06:12:00;;;;;;;;;1.67;1.67;;;;;-146.25;100.00;57879.81;5078683;28;45345;-74
2021/12/26 06:14:26;;;;;;;;;3.00;3.00;;;;;-146.25;100.00;57879.81;5078580;28;45366;-74
2021/12/26 06:16:52;;;;;;;;;1.00;1.00;;;;;-146.25;100.00;57879.81;5077506;28;45425;-74
2021/12/26 06:19:17;;;;;;;;;2.33;2.00;;;;;-146.25;100.00;57879.81;5076974;28;46337;-73
2021/12/26 06:21:43;;;;;;;;;1.00;1.00;;;;;-146.25;100.00;57879.81;5078471;27;45205;-74
2021/12/26 06:24:08;;;;;;;;;2.00;2.00;;;;;-146.25;100.00;57879.81;5078601;27;45222;-73
2021/12/26 06:26:35;;;;;;;;;1.00;1.00;;;;;-146.25;100.00;57879.81;5079224;28;45548;-73
2021/12/26 06:29:01;;;;;;;;;3.00;3.00;;;;;-146.25;100.00;57879.81;5078635;28;46051;-74
2021/12/26 06:31:27;;;;;;;;;1.00;1.00;;;;;-146.25;100.00;57879.81;5078312;27;45432;-74
2021/12/26 06:33:52;;;;;;;;;2.00;1.00;;;;;-146.25;100.00;57879.81;5078234;27;45371;-73
2021/12/26 06:36:18;;;;;;;;;1.00;1.00;;;;;-146.25;100.00;57879.81;5078536;28;45457;-74
2021/12/26 06:38:45;;;;;;;;;2.00;1.00;;;;;-146.25;100.00;57879.81;5078252;27;45552;-74
2021/12/26 06:41:14;;;;;;;;;2.00;1.00;;;;;-146.25;100.00;57879.81;5078112;27;45239;-74
2021/12/26 06:43:41;;;;;;;;;1.00;0.00;;;;;-146.25;100.00;57879.81;5075721;28;45515;-73
2021/12/26 06:46:07;;;;;;;;;0.00;0.00;;;;;-146.25;100.00;57879.81;5076548;27;45485;-73
2021/12/26 06:48:34;;;;;;;;;1.00;1.00;;;;;-146.25;100.00;57879.81;5076657;27;45488;-75
2021/12/26 06:50:59;;;;;;;;;1.33;1.00;;;;;-146.25;100.00;57879.81;5076822;27;45568;-75
2021/12/26 06:53:25;;;;;;;;;2.00;1.00;;;;;-146.25;100.00;57879.81;5076538;27;45567;-76
2021/12/26 06:55:51;;;;;;;;;2.00;1.00;;;;;-146.25;100.00;57879.81;5076509;27;45622;-72
2021/12/26 06:58:17;;;;;;;;;1.00;1.00;;;;;-146.25;100.00;57879.81;5077613;27;45491;-74
2021/12/26 07:00:43;;;;;;;;;1.00;1.00;;;;;-146.25;100.00;57879.81;5077112;28;45397;-74
2021/12/26 07:03:10;;;;;;;;;2.00;2.00;;;;;-146.25;100.00;57879.81;5077009;27;45274;-74
2021/12/26 07:05:36;;;;;;;;;1.67;1.67;;;;;-146.25;100.00;57879.81;5078163;27;45503;-72
2021/12/26 07:08:03;;;;;;;;;1.00;1.00;;;;;-146.25;100.00;57879.81;5077064;28;46102;-76
2021/12/26 07:10:29;;;;;;;;;2.00;2.00;;;;;-146.25;100.00;57879.81;5077189;27;45449;-74
2021/12/26 07:12:54;;;;;;;;;1.00;1.00;;;;;-146.25;100.00;57879.81;5073833;28;45440;-75
2021/12/26 07:15:20;;;;;;;;;1.00;1.00;;;;;-146.25;100.00;57879.81;5076667;27;45556;-72
2021/12/26 07:17:46;;;;;;;;;2.00;2.00;;;;;-146.25;100.00;57879.81;5076443;27;46058;-73
2021/12/26 07:20:16;;;;;;;;;2.00;2.00;;;;;-146.25;100.00;57879.81;5075982;27;45800;-74
2021/12/26 07:22:46;;;;;;;;;3.00;2.00;;;;;-146.25;100.00;57879.81;5076376;27;45947;-73
2021/12/26 07:25:12;;;;;;;;;1.00;1.00;;;;;-146.25;100.00;57879.81;5077907;27;45448;-74
2021/12/26 07:27:38;;;;;;;;;1.00;1.00;;;;;-146.25;100.00;57879.81;5079060;27;45370;-73
2021/12/26 07:30:05;;;;;;;;;1.00;1.00;;;;;-146.25;100.00;57879.81;5078631;28;45554;-74
2021/12/26 07:32:31;;;;;;;;;2.00;2.00;;;;;-146.25;100.00;57879.81;5077747;27;45285;-74
2021/12/26 07:34:59;;;;;;;;;3.00;3.00;;;;;-146.25;100.00;57879.81;5078978;28;45895;-74
2021/12/26 07:37:26;;;;;;;;;2.67;2.00;;;;;-146.25;100.00;57879.81;5078717;27;45405;-74
2021/12/26 07:39:52;;;;;;;;;4.00;3.00;;;;;-146.25;100.00;57879.81;5077387;27;45422;-74
2021/12/26 07:42:18;;;;;;;;;1.00;1.00;;;;;-146.25;100.00;57879.81;5077324;27;45238;-74
2021/12/26 07:44:43;;;;;;;;;1.00;1.00;;;;;-146.25;100.00;57879.81;5080108;27;45291;-74
2021/12/26 07:47:11;;;;;;;;;2.00;2.00;;;;;-146.25;100.00;57879.81;5083600;28;46139;-73
2021/12/26 07:49:37;;;;;;;;;1.00;1.00;;;;;-146.25;100.00;57879.81;5084473;28;45510;-74
2021/12/26 07:52:10;;;;;;;;;1.67;1.67;;;;;-146.25;100.00;57879.81;5079450;27;45556;-79
2021/12/26 07:54:35;;;;;;;;;1.33;1.00;;;;;-146.25;100.00;57879.81;5083129;27;45397;-74
2021/12/26 07:57:01;;;;;;;;;2.00;2.00;;;;;-146.25;100.00;57879.81;5062438;28;45472;-73
2021/12/26 07:59:27;;;;;;;;;2.00;2.00;;;;;-146.25;100.00;57879.81;5062330;28;45523;-72
2021/12/26 08:01:52;;;;;;;;;1.00;1.00;;;;;-146.25;100.00;57879.81;5062742;28;45392;-73
2021/12/26 08:04:18;;;;;;;;;2.33;2.00;;;;;-146.25;100.00;57879.81;5062932;28;45509;-72
2021/12/26 08:06:44;;;;;;;;;14.25;12.00;;;;;-146.25;100.00;57879.81;5062368;28;45498;-72
2021/12/26 08:09:09;;;;;;;;;19.25;18.00;;;;;-146.25;100.00;57879.81;5063143;28;45423;-73
2021/12/26 08:11:35;;;;;;;;;16.50;15.00;;;;;-146.25;100.00;57879.81;5063278;28;45449;-72
2021/12/26 08:14:01;;;;;;;;;10.33;9.67;;;;;-146.25;100.00;57879.81;5070602;28;45599;-72
2021/12/26 08:16:27;;;;;;;;;24.00;22.25;;;;;-146.25;100.00;57879.81;5083247;27;45423;-75
2021/12/26 08:18:54;;;;;;;;;36.25;30.75;;;;;-146.25;100.00;57879.81;5084096;28;45420;-73
2021/12/26 08:21:20;;;;;;;;;49.00;39.75;;;;;-146.25;100.00;57879.81;5083212;27;45681;-77
2021/12/26 08:23:46;;;;;;;;;36.75;32.00;;;;;-146.25;100.00;57879.81;5083694;27;45448;-73
2021/12/26 08:26:12;;;;;;;;;6.33;6.00;;;;;-146.25;100.00;57879.81;5081723;28;45952;-72
2021/12/26 08:28:38;;;;;;;;;6.00;5.33;;;;;-146.25;100.00;57879.81;5080742;27;45674;-75
2021/12/26 08:31:04;;;;;;;;;4.00;4.00;;;;;-146.25;100.00;57879.81;5064047;28;45342;-71
2021/12/26 08:33:31;;;;;;;;;2.00;2.00;;;;;-146.25;100.00;57879.81;5063502;28;45489;-75
2021/12/26 08:35:57;;;;;;;;;3.67;3.00;;;;;-146.25;100.00;57879.81;5063039;28;45499;-74
2021/12/26 08:38:23;;;;;;;;;2.33;2.33;;;;;-146.25;100.00;57879.81;5063420;28;46051;-75
2021/12/26 08:40:57;;;;;;;;;3.00;3.00;;;;;-146.25;100.00;57879.81;5082592;28;45552;-74
2021/12/26 08:43:30;;;;;;;;;3.33;3.00;;;;;-146.25;100.00;57879.81;5081767;28;45474;-73
2021/12/26 08:45:56;;;;;;;;;4.00;4.00;;;;;-146.25;100.00;57879.81;5082816;28;46096;-75
2021/12/26 08:48:22;;;;;;;;;3.00;2.00;;;;;-146.25;100.00;57879.81;5082430;27;45513;-73
2021/12/26 08:50:48;;;;;;;;;3.00;2.33;;;;;-146.25;100.00;57879.81;5081718;28;45507;-75
2021/12/26 08:53:14;;;;;;;;;2.00;2.00;;;;;-146.25;100.00;57879.81;5082540;27;45512;-77
2021/12/26 08:55:39;;;;;;;;;3.00;2.33;;;;;-146.25;100.00;57879.81;5081661;27;45399;-74
2021/12/26 08:58:06;;;;;;;;;3.00;3.00;;;;;-146.25;100.00;57879.81;5078759;28;45700;-75
2021/12/26 09:00:32;;;;;;;;;5.00;5.00;;;;;-146.25;100.00;57879.81;5078434;27;45766;-74
2021/12/26 09:02:58;;;;;;;;;18.67;16.67;;;;;-146.25;100.00;57879.81;5078336;27;45542;-73
2021/12/26 09:05:24;;;;;;;;;45.25;37.25;;;;;-146.25;100.00;57879.81;5078330;28;46004;-73
2021/12/26 09:07:49;;;;;;;;;25.25;23.00;;;;;-146.25;100.00;57879.81;5078996;28;45957;-73
2021/12/26 09:10:15;;;;;;;;;23.25;21.50;;;;;-146.25;100.00;57879.81;5078462;28;45426;-74
2021/12/26 09:12:42;;;;;;;;;24.75;23.00;;;;;-146.25;100.00;57879.81;5079200;27;45326;-75
2021/12/26 09:15:09;;;;;;;;;6.00;6.00;;;;;-146.25;100.00;57879.81;5078972;27;46122;-73
2021/12/26 09:17:35;;;;;;;;;9.67;9.00;;;;;-146.25;100.00;57879.81;5079214;27;45558;-73
2021/12/26 09:20:01;;;;;;;;;5.00;4.67;;;;;-146.25;100.00;57879.81;5079241;27;45480;-76
2021/12/26 09:22:26;;;;;;;;;4.00;3.00;;;;;-146.25;100.00;57879.81;5078639;27;45462;-75
2021/12/26 09:24:52;;;;;;;;;5.00;5.00;;;;;-146.25;100.00;57879.81;5078613;28;45996;-78
2021/12/26 09:27:18;;;;;;;;;9.00;8.00;;;;;-146.25;100.00;57879.81;5078803;28;45535;-75
2021/12/26 09:29:45;;;;;;;;;14.33;12.00;;;;;-146.25;100.00;57879.81;5079458;27;45435;-76
2021/12/26 09:32:11;;;;;;;;;9.00;8.00;;;;;-146.25;100.00;57879.81;5080003;27;45389;-77
2021/12/26 09:34:37;;;;;;;;;7.00;6.33;;;;;-146.25;100.00;57879.81;5079047;27;45966;-77
2021/12/26 09:37:05;;;;;;;;;4.00;4.00;;;;;-146.25;100.00;57879.81;5079389;28;45508;-77
2021/12/26 09:39:31;;;;;;;;;3.33;3.00;;;;;-146.25;100.00;57879.81;5074017;27;45514;-80
2021/12/26 09:41:56;;;;;;;;;4.00;4.00;;;;;-146.25;100.00;57879.81;5057991;28;45409;-73
2021/12/26 09:44:22;;;;;;;;;8.67;8.00;;;;;-146.25;100.00;57879.81;5075243;28;45828;-74
2021/12/26 09:46:49;;;;;;;;;5.00;5.00;;;;;-146.25;100.00;57879.81;5078023;27;45473;-74
2021/12/26 09:49:15;;;;;;;;;7.00;6.33;;;;;-146.25;100.00;57879.81;5077942;27;45361;-75
2021/12/26 09:51:41;;;;;;;;;14.00;13.33;;;;;-146.25;100.00;57879.81;5078402;27;45408;-75
2021/12/26 09:54:08;;;;;;;;;3.67;3.67;;;;;-146.25;100.00;57879.81;5078535;27;45416;-77
2021/12/26 09:56:33;;;;;;;;;6.00;5.00;;;;;-146.25;100.00;57879.81;5078892;27;45535;-77
2021/12/26 09:59:06;;;;;;;;;5.00;5.00;;;;;-146.25;100.00;57879.81;5078270;28;45462;-75
2021/12/26 10:01:33;;;;;;;;;5.00;4.00;;;;;-146.25;100.00;57879.81;5076157;28;45404;-77
2021/12/26 10:04:14;;;;;;;;;7.00;7.00;;;;;-146.25;100.00;57879.81;5077350;28;45422;-77
2021/12/26 10:06:39;;;;;;;;;9.00;8.00;;;;;-146.25;100.00;57879.81;5077111;28;45425;-76
2021/12/26 10:09:08;;;;;;;;;7.67;7.00;;;;;-146.25;100.00;57879.81;5077293;28;45484;-77
2021/12/26 10:11:37;;;;;;;;;10.33;9.00;;;;;-146.25;100.00;57879.81;5078406;27;45456;-77
2021/12/26 10:14:24;;;;;;;;;18.25;15.75;;;;;-146.25;100.00;57879.81;5077622;28;45551;-75
2021/12/26 10:16:59;;;;;;;;;19.25;17.00;;;;;-146.25;100.00;57879.81;5075249;28;45474;-77
2021/12/26 10:19:25;;;;;;;;;19.00;18.75;;;;;-146.25;100.00;57879.81;5075624;28;45519;-75
2021/12/26 10:21:53;;;;;;;;;27.00;25.00;;;;;-146.25;100.00;57879.81;5077634;28;45512;-78
2021/12/26 10:24:19;;;;;;;;;14.00;14.00;;;;;-146.25;100.00;57879.81;5074759;28;45497;-75
2021/12/26 10:26:53;;;;;;;;;7.67;7.33;;;;;-146.25;100.00;57879.81;5077662;28;45525;-79
2021/12/26 10:29:32;;;;;;;;;13.33;12.67;;;;;-146.25;100.00;57879.81;5057642;28;45378;-73
2021/12/26 10:32:10;;;;;;;;;5.67;4.67;;;;;-146.25;100.00;57879.81;5058046;28;45410;-74
2021/12/26 10:34:59;;;;;;;;;5.00;4.33;;;;;-146.25;100.00;57879.81;5058215;28;45618;-74
2021/12/26 10:37:33;;;;;;;;;5.00;4.33;;;;;-146.25;100.00;57879.81;5058114;28;45311;-72
2021/12/26 10:40:03;;;;;;;;;5.00;5.00;;;;;-146.25;100.00;57879.81;5057887;28;45354;-72
2021/12/26 10:42:33;;;;;;;;;4.00;4.00;;;;;-146.25;100.00;57879.81;5058088;28;45437;-74
2021/12/26 10:45:05;;;;;;;;;4.00;3.00;;;;;-146.25;100.00;57879.81;5071083;28;46153;-74
2021/12/26 10:47:34;;;;;;;;;5.33;5.00;;;;;-146.25;100.00;57879.81;5076991;28;45510;-71
2021/12/26 10:50:11;;;;;;;;;5.00;4.00;;;;;-146.25;100.00;57879.81;5076324;27;45163;-73
2021/12/26 10:52:38;;;;;;;;;8.00;7.67;;;;;-146.25;100.00;57879.81;5072116;28;45428;-73
2021/12/26 10:55:14;;;;;;;;;7.33;7.33;;;;;-146.25;100.00;57879.81;5076653;28;45492;-73
2021/12/26 10:57:43;;;;;;;;;17.67;16.00;;;;;-146.25;100.00;57879.81;5075239;28;45575;-73
2021/12/26 11:00:27;;;;;;;;;10.00;9.00;;;;;-146.25;100.00;57879.81;5076900;28;45400;-74
2021/12/26 11:03:06;;;;;;;;;3.67;3.67;;;;;-146.25;100.00;57879.81;5071404;28;45495;-74
2021/12/26 11:05:38;;;;;;;;;3.00;3.00;;;;;-146.25;100.00;57879.81;5073793;28;45458;-73
2021/12/26 11:08:07;;;;;;;;;3.67;3.33;;;;;-146.25;100.00;57879.81;5076267;28;45564;-75
2021/12/26 11:10:37;;;;;;;;;2.00;2.00;;;;;-146.25;100.00;57879.81;5074217;28;45547;-74